Salamis Filoxenia — 5BUY2 — position and weather

sailwx.info

Track history (hours):
 
Tides and Currents Weather Stations Pressure Air Temp Water Temp Dewpoint Dewpoint Depression Visibility Wind Speed Wind Dir Waves Ship Positions

Salamis Filoxenia

Last reported at 2014-Aug-29 14:33 UTC. Time now 2014-Aug-31 02:37 UTC.
Position N 34°37' E 032°19'.

Length 157 m; draft 6.2 m.

Type: Passenger vessel. MMSI: 209167000.

Date/timePositionNaut miles runAvg speedWind from/ knotsBaromVisibWave heightAir tempDewpointWater temp
2014-Aug-29 14:33N 34°37' E 032°19'1515.0
2014-Aug-29 13:33N 34°34' E 032°36'1514.8
2014-Aug-29 12:33N 34°32' E 032°54'10 9.7
2014-Aug-29 11:33N 34°39' E 033°03'1 1.4
2014-Aug-29 10:33N 34°39' E 033°01'0 0.0
2014-Aug-29 09:33N 34°39' E 033°01'0 0.0
2014-Aug-29 08:33N 34°39' E 033°01'0 0.0
2014-Aug-29 07:33N 34°39' E 033°01'0 0.0
2014-Aug-29 06:33N 34°39' E 033°01'0 0.0
2014-Aug-29 05:33N 34°39' E 033°01'0 0.0
2014-Aug-29 04:33N 34°39' E 033°01'1 0.6
2014-Aug-29 03:33N 34°39' E 033°02'1413.9
2014-Aug-29 02:33N 34°29' E 033°13'3115.1
2014-Aug-29 00:29N 34°05' E 033°37'1715.2
2014-Aug-28 23:23N 33°52' E 033°50'1315.0
2014-Aug-28 22:33N 33°42' E 033°59'18 0.7
2014-Aug-27 19:32N 33°55' E 033°46'1413.5
2014-Aug-27 18:28N 34°07' E 033°35'1513.6
2014-Aug-27 17:23N 34°18' E 033°24'1113.4
2014-Aug-27 16:33N 34°27' E 033°15'1413.7
2014-Aug-27 15:34N 34°37' E 033°04'3 3.4
2014-Aug-27 14:34N 34°39' E 033°01'0 0.0
2014-Aug-27 13:34N 34°39' E 033°01'0 0.0
2014-Aug-27 12:33N 34°39' E 033°01'0 0.0
2014-Aug-27 11:34N 34°39' E 033°01'0 0.0
2014-Aug-27 10:34N 34°39' E 033°01'0 0.0
2014-Aug-27 09:34N 34°39' E 033°01'0 0.0
2014-Aug-27 08:34N 34°39' E 033°01'0 0.2
2014-Aug-27 07:34N 34°39' E 033°01'8 7.8
2014-Aug-27 06:33N 34°32' E 032°57'1514.9
2014-Aug-27 05:33N 34°36' E 032°40'1414.1
2014-Aug-27 04:33N 34°41' E 032°24'10515.0
2014-Aug-26 21:33N 35°29' E 030°30'1715.4
2014-Aug-26 20:26N 35°38' E 030°12'170 9.0
2014-Aug-26 01:33N 36°38' E 026°55'1514.1
2014-Aug-26 00:30N 36°51' E 026°45'1314.1
2014-Aug-25 23:33N 37°02' E 026°37'1313.2
2014-Aug-25 22:33N 37°13' E 026°28'1313.2
2014-Aug-25 21:33N 37°26' E 026°22'1211.5
2014-Aug-25 20:33N 37°37' E 026°18'0 0.0
2014-Aug-25 19:33N 37°37' E 026°18'0 0.0
2014-Aug-25 18:33N 37°37' E 026°18'0 0.0
2014-Aug-25 17:32N 37°37' E 026°18'0 0.0
2014-Aug-25 16:32N 37°37' E 026°18'0 0.0
2014-Aug-25 15:33N 37°37' E 026°18'0 0.0
2014-Aug-25 14:31N 37°37' E 026°18'0 0.0
2014-Aug-25 13:30N 37°37' E 026°18'0 0.0
2014-Aug-25 12:16N 37°37' E 026°18'0 0.0
2014-Aug-25 11:29N 37°37' E 026°18'0 0.0
2014-Aug-25 10:21N 37°37' E 026°18'0 0.5
2014-Aug-25 09:33N 37°37' E 026°18'7 7.3
2014-Aug-25 08:33N 37°44' E 026°20'1513.8
2014-Aug-25 07:28N 37°52' E 026°04'1813.4
2014-Aug-25 06:09N 38°01' E 025°45'813.3
2014-Aug-25 05:30N 38°06' E 025°36'1813.6
2014-Aug-25 04:12N 38°16' E 025°17'99 5.5
2014-Aug-24 10:13N 39°09' E 023°30'10613.1
2014-Aug-24 02:07N 37°60' E 025°13'2213.5
2014-Aug-24 00:32N 37°46' E 025°34'1614.5
2014-Aug-23 23:27N 37°35' E 025°48'1314.1
2014-Aug-23 22:33N 37°26' E 025°60'1413.7
2014-Aug-23 21:33N 37°21' E 026°15'1413.6
2014-Aug-23 20:33N 37°15' E 026°31'1313.2
2014-Aug-23 19:33N 37°14' E 026°48'32210.7
2014-Aug-22 13:33N 34°38' E 032°36'1414.2
2014-Aug-22 12:33N 34°33' E 032°52'1010.4
2014-Aug-22 11:33N 34°37' E 033°04'4 3.6
2014-Aug-22 10:33N 34°39' E 033°01'0 0.0
2014-Aug-22 09:33N 34°39' E 033°01'0 0.0
2014-Aug-22 08:33N 34°39' E 033°01'0 0.0
2014-Aug-22 07:33N 34°39' E 033°01'0 0.0
2014-Aug-22 06:33N 34°39' E 033°01'0 0.0
2014-Aug-22 05:33N 34°39' E 033°01'0 0.0
2014-Aug-22 04:33N 34°39' E 033°01'1 0.9
2014-Aug-22 03:33N 34°39' E 033°02'1413.9
2014-Aug-22 02:34N 34°29' E 033°13'1615.0
2014-Aug-22 01:29N 34°16' E 033°26'2 0.1
2014-Aug-20 17:26N 34°18' E 033°24'1213.5
2014-Aug-20 16:32N 34°27' E 033°15'1313.4
2014-Aug-20 15:33N 34°37' E 033°04'4 3.7
2014-Aug-20 14:33N 34°39' E 033°01'0 0.0
2014-Aug-20 13:33N 34°39' E 033°01'0 0.0
2014-Aug-20 12:33N 34°39' E 033°01'0 0.0
2014-Aug-20 11:33N 34°39' E 033°01'0 0.0
2014-Aug-20 10:33N 34°39' E 033°01'0 0.0
2014-Aug-20 09:33N 34°39' E 033°01'0 0.0
2014-Aug-20 08:33N 34°39' E 033°01'0 0.3
2014-Aug-20 07:33N 34°39' E 033°01'8 8.0
2014-Aug-20 06:33N 34°32' E 032°57'1514.7
2014-Aug-20 05:33N 34°36' E 032°40'  
Track history (hours):
 
Tides and Currents Weather Stations Pressure Air Temp Water Temp Dewpoint Dewpoint Depression Visibility Wind Speed Wind Dir Waves Ship Positions

Salamis Filoxenia

Last reported at 2014-Aug-29 14:33 UTC. Time now 2014-Aug-31 02:37 UTC.
Position N 34°37' E 032°19'.

Length 157 m; draft 6.2 m.

Type: Passenger vessel. MMSI: 209167000.

Date/timePositionNaut miles runAvg speedWind from/ knotsBaromVisibWave heightAir tempDewpointWater temp
2014-Aug-29 14:33N 34°37' E 032°19'1515.0
2014-Aug-29 13:33N 34°34' E 032°36'1514.8
2014-Aug-29 12:33N 34°32' E 032°54'10 9.7
2014-Aug-29 11:33N 34°39' E 033°03'1 1.4
2014-Aug-29 10:33N 34°39' E 033°01'0 0.0
2014-Aug-29 09:33N 34°39' E 033°01'0 0.0
2014-Aug-29 08:33N 34°39' E 033°01'0 0.0
2014-Aug-29 07:33N 34°39' E 033°01'0 0.0
2014-Aug-29 06:33N 34°39' E 033°01'0 0.0
2014-Aug-29 05:33N 34°39' E 033°01'0 0.0
2014-Aug-29 04:33N 34°39' E 033°01'1 0.6
2014-Aug-29 03:33N 34°39' E 033°02'1413.9
2014-Aug-29 02:33N 34°29' E 033°13'3115.1
2014-Aug-29 00:29N 34°05' E 033°37'1715.2
2014-Aug-28 23:23N 33°52' E 033°50'1315.0
2014-Aug-28 22:33N 33°42' E 033°59'18 0.7
2014-Aug-27 19:32N 33°55' E 033°46'1413.5
2014-Aug-27 18:28N 34°07' E 033°35'1513.6
2014-Aug-27 17:23N 34°18' E 033°24'1113.4
2014-Aug-27 16:33N 34°27' E 033°15'1413.7
2014-Aug-27 15:34N 34°37' E 033°04'3 3.4
2014-Aug-27 14:34N 34°39' E 033°01'0 0.0
2014-Aug-27 13:34N 34°39' E 033°01'0 0.0
2014-Aug-27 12:33N 34°39' E 033°01'0 0.0
2014-Aug-27 11:34N 34°39' E 033°01'0 0.0
2014-Aug-27 10:34N 34°39' E 033°01'0 0.0
2014-Aug-27 09:34N 34°39' E 033°01'0 0.0
2014-Aug-27 08:34N 34°39' E 033°01'0 0.2
2014-Aug-27 07:34N 34°39' E 033°01'8 7.8
2014-Aug-27 06:33N 34°32' E 032°57'1514.9
2014-Aug-27 05:33N 34°36' E 032°40'1414.1
2014-Aug-27 04:33N 34°41' E 032°24'10515.0
2014-Aug-26 21:33N 35°29' E 030°30'1715.4
2014-Aug-26 20:26N 35°38' E 030°12'170 9.0
2014-Aug-26 01:33N 36°38' E 026°55'1514.1
2014-Aug-26 00:30N 36°51' E 026°45'1314.1
2014-Aug-25 23:33N 37°02' E 026°37'1313.2
2014-Aug-25 22:33N 37°13' E 026°28'1313.2
2014-Aug-25 21:33N 37°26' E 026°22'1211.5
2014-Aug-25 20:33N 37°37' E 026°18'0 0.0
2014-Aug-25 19:33N 37°37' E 026°18'0 0.0
2014-Aug-25 18:33N 37°37' E 026°18'0 0.0
2014-Aug-25 17:32N 37°37' E 026°18'0 0.0
2014-Aug-25 16:32N 37°37' E 026°18'0 0.0
2014-Aug-25 15:33N 37°37' E 026°18'0 0.0
2014-Aug-25 14:31N 37°37' E 026°18'0 0.0
2014-Aug-25 13:30N 37°37' E 026°18'0 0.0
2014-Aug-25 12:16N 37°37' E 026°18'0 0.0
2014-Aug-25 11:29N 37°37' E 026°18'0 0.0
2014-Aug-25 10:21N 37°37' E 026°18'0 0.5
2014-Aug-25 09:33N 37°37' E 026°18'7 7.3
2014-Aug-25 08:33N 37°44' E 026°20'1513.8
2014-Aug-25 07:28N 37°52' E 026°04'1813.4
2014-Aug-25 06:09N 38°01' E 025°45'813.3
2014-Aug-25 05:30N 38°06' E 025°36'1813.6
2014-Aug-25 04:12N 38°16' E 025°17'99 5.5
2014-Aug-24 10:13N 39°09' E 023°30'10613.1
2014-Aug-24 02:07N 37°60' E 025°13'2213.5
2014-Aug-24 00:32N 37°46' E 025°34'1614.5
2014-Aug-23 23:27N 37°35' E 025°48'1314.1
2014-Aug-23 22:33N 37°26' E 025°60'1413.7
2014-Aug-23 21:33N 37°21' E 026°15'1413.6
2014-Aug-23 20:33N 37°15' E 026°31'1313.2
2014-Aug-23 19:33N 37°14' E 026°48'32210.7
2014-Aug-22 13:33N 34°38' E 032°36'1414.2
2014-Aug-22 12:33N 34°33' E 032°52'1010.4
2014-Aug-22 11:33N 34°37' E 033°04'4 3.6
2014-Aug-22 10:33N 34°39' E 033°01'0 0.0
2014-Aug-22 09:33N 34°39' E 033°01'0 0.0
2014-Aug-22 08:33N 34°39' E 033°01'0 0.0
2014-Aug-22 07:33N 34°39' E 033°01'0 0.0
2014-Aug-22 06:33N 34°39' E 033°01'0 0.0
2014-Aug-22 05:33N 34°39' E 033°01'0 0.0
2014-Aug-22 04:33N 34°39' E 033°01'1 0.9
2014-Aug-22 03:33N 34°39' E 033°02'1413.9
2014-Aug-22 02:34N 34°29' E 033°13'1615.0
2014-Aug-22 01:29N 34°16' E 033°26'2 0.1
2014-Aug-20 17:26N 34°18' E 033°24'1213.5
2014-Aug-20 16:32N 34°27' E 033°15'1313.4
2014-Aug-20 15:33N 34°37' E 033°04'4 3.7
2014-Aug-20 14:33N 34°39' E 033°01'0 0.0
2014-Aug-20 13:33N 34°39' E 033°01'0 0.0
2014-Aug-20 12:33N 34°39' E 033°01'0 0.0
2014-Aug-20 11:33N 34°39' E 033°01'0 0.0
2014-Aug-20 10:33N 34°39' E 033°01'0 0.0
2014-Aug-20 09:33N 34°39' E 033°01'0 0.0
2014-Aug-20 08:33N 34°39' E 033°01'0 0.3
2014-Aug-20 07:33N 34°39' E 033°01'8 8.0
2014-Aug-20 06:33N 34°32' E 032°57'1514.7
2014-Aug-20 05:33N 34°36' E 032°40'  

Dump ship's entire track history